Gubser Mill, Kentucky
Current Conditions -  °F | °C
As of 2:53 PM on Friday 21 Nov 2014 (Local Time) from KLUK Reporting Station
Clear Clear  
Wind Chill: 34°   Ceiling: Unl
Heat Index: 34°   Visibility: 10mi
Dew Point: 10°   Wind: 3mph
Humidity: 37%   Direction: 120°ESE
Pressure: 30.49"   Gusts: NA
Location:  38.8948°N, 84.2968°W
Report Text: KLUK 211953Z 12003KT 10SM CLR 01/M12 A3049 RMK AO2 SLP331 T00111122
Loading
Personal Weather Stations






























Interactive Weather Map New forecast layout! Learn more

10-Day Weather Forecast

Advertisements
Track Severe Weather on mobile